Aviation Digital Data Service (ADDS)

Output produced by METARs form (0532 UTC 19 March 2019)
found at http://www.aviationweather.gov/metar/data/
 
METAR text: PAPN 190456Z AUTO 26016KT 10SM OVC027 M02/M06 A2959 RMK AO2 SLP021 T10171056 PWINO FZRANO
Conditions at: PAPN (PILOT POINT , AK, US) observed 0456 UTC 19 March 2019
Temperature: -1.7°C (29°F)
Dewpoint: -5.6°C (22°F) [RH = 75%]
Pressure (altimeter): 29.59 inches Hg (1002.1 mb)
[Sea-level pressure: 1002.1 mb]
Winds: from the W (260 degrees) at 18 MPH (16 knots; 8.2 m/s)
Visibility: 10 or more miles (16+ km)
Ceiling: 2700 feet AGL
Clouds: overcast cloud deck at 2700 feet AGL
Weather: automated observation with no human augmentation;
there may or may not be significant weather present at this time

METAR text: PAPN 190356Z AUTO 27015KT 10SM OVC029 M02/M06 A2955 RMK AO2 SLP008 T10171056 PWINO FZRANO
Conditions at: PAPN (PILOT POINT , AK, US) observed 0356 UTC 19 March 2019
Temperature: -1.7°C (29°F)
Dewpoint: -5.6°C (22°F) [RH = 75%]
Pressure (altimeter): 29.55 inches Hg (1000.8 mb)
[Sea-level pressure: 1000.8 mb]
Winds: from the W (270 degrees) at 17 MPH (15 knots; 7.7 m/s)
Visibility: 10 or more miles (16+ km)
Ceiling: 2900 feet AGL
Clouds: overcast cloud deck at 2900 feet AGL
Weather: automated observation with no human augmentation;
there may or may not be significant weather present at this time

METAR text: PAPN 190310Z AUTO 25014KT 10SM FEW021 BKN027 OVC036 M02/M06 A2954 RMK AO2 PWINO FZRANO
Conditions at: PAPN (PILOT POINT , AK, US) observed 0310 UTC 19 March 2019
Temperature: -2.0°C (28°F)
Dewpoint: -6.0°C (21°F) [RH = 74%]
Pressure (altimeter): 29.54 inches Hg (1000.4 mb)
Winds: from the WSW (250 degrees) at 16 MPH (14 knots; 7.2 m/s)
Visibility: 10 or more miles (16+ km)
Ceiling: 2700 feet AGL
Clouds: few clouds at 2100 feet AGL
broken clouds at 2700 feet AGL
overcast cloud deck at 3600 feet AGL
Weather: automated observation with no human augmentation;
there may or may not be significant weather present at this time

METAR text: PAPN 190256Z AUTO 26015KT 10SM SCT021 OVC035 M02/M04 A2953 RMK AO2 SLP001 T10171044 53019 PWINO FZRANO
Conditions at: PAPN (PILOT POINT , AK, US) observed 0256 UTC 19 March 2019
Temperature: -1.7°C (29°F)
Dewpoint: -4.4°C (24°F) [RH = 82%]
Pressure (altimeter): 29.53 inches Hg (1000.1 mb)
[Sea-level pressure: 1000.1 mb]
Winds: from the W (260 degrees) at 17 MPH (15 knots; 7.7 m/s)
Visibility: 10 or more miles (16+ km)
Ceiling: 3500 feet AGL
Clouds: scattered clouds at 2100 feet AGL
overcast cloud deck at 3500 feet AGL
Weather: automated observation with no human augmentation;
there may or may not be significant weather present at this time

METAR text: PAPN 190156Z AUTO 25015KT 10SM SCT022 OVC034 M01/M05 A2951 RMK AO2 SLP995 T10111050 PWINO FZRANO
Conditions at: PAPN (PILOT POINT , AK, US) observed 0156 UTC 19 March 2019
Temperature: -1.1°C (30°F)
Dewpoint: -5.0°C (23°F) [RH = 75%]
Pressure (altimeter): 29.51 inches Hg (999.4 mb)
[Sea-level pressure:  999.5 mb]
Winds: from the WSW (250 degrees) at 17 MPH (15 knots; 7.7 m/s)
Visibility: 10 or more miles (16+ km)
Ceiling: 3400 feet AGL
Clouds: scattered clouds at 2200 feet AGL
overcast cloud deck at 3400 feet AGL
Weather: automated observation with no human augmentation;
there may or may not be significant weather present at this time

METAR text: PAPN 190126Z AUTO 24016KT 9SM BKN020 BKN026 OVC035 M02/M04 A2950 RMK AO2 PWINO FZRANO
Conditions at: PAPN (PILOT POINT , AK, US) observed 0126 UTC 19 March 2019
Temperature: -2.0°C (28°F)
Dewpoint: -4.0°C (25°F) [RH = 86%]
Pressure (altimeter): 29.50 inches Hg (999.1 mb)
Winds: from the WSW (240 degrees) at 18 MPH (16 knots; 8.2 m/s)
Visibility: 9 miles (14 km)
Ceiling: 2000 feet AGL
Clouds: broken clouds at 2000 feet AGL
broken clouds at 2600 feet AGL
overcast cloud deck at 3500 feet AGL
Weather: automated observation with no human augmentation;
there may or may not be significant weather present at this time

METAR text: PAPN 190116Z AUTO 24016KT 10SM FEW020 SCT025 OVC035 M02/M04 A2950 RMK AO2 PWINO FZRANO
Conditions at: PAPN (PILOT POINT , AK, US) observed 0116 UTC 19 March 2019
Temperature: -2.0°C (28°F)
Dewpoint: -4.0°C (25°F) [RH = 86%]
Pressure (altimeter): 29.50 inches Hg (999.1 mb)
Winds: from the WSW (240 degrees) at 18 MPH (16 knots; 8.2 m/s)
Visibility: 10 or more miles (16+ km)
Ceiling: 3500 feet AGL
Clouds: few clouds at 2000 feet AGL
scattered clouds at 2500 feet AGL
overcast cloud deck at 3500 feet AGL
Weather: automated observation with no human augmentation;
there may or may not be significant weather present at this time

METAR text: PAPN 190056Z AUTO 24016KT 7SM FEW022 BKN028 OVC035 M01/M04 A2949 RMK AO2 SLP987 T10111039 PWINO FZRANO
Conditions at: PAPN (PILOT POINT , AK, US) observed 0056 UTC 19 March 2019
Temperature: -1.1°C (30°F)
Dewpoint: -3.9°C (25°F) [RH = 81%]
Pressure (altimeter): 29.49 inches Hg (998.7 mb)
[Sea-level pressure:  998.7 mb]
Winds: from the WSW (240 degrees) at 18 MPH (16 knots; 8.2 m/s)
Visibility: 7 miles (11 km)
Ceiling: 2800 feet AGL
Clouds: few clouds at 2200 feet AGL
broken clouds at 2800 feet AGL
overcast cloud deck at 3500 feet AGL
Weather: automated observation with no human augmentation;
there may or may not be significant weather present at this time

METAR text: PAPN 182356Z AUTO 24012KT 10SM OVC029 M01/M05 A2947 RMK AO2 SLP982 T10111050 11006 21022 53004 PWINO FZRANO
Conditions at: PAPN (PILOT POINT , AK, US) observed 2356 UTC 18 March 2019
Temperature: -1.1°C (30°F)
Dewpoint: -5.0°C (23°F) [RH = 75%]
Pressure (altimeter): 29.47 inches Hg (998.1 mb)
[Sea-level pressure:  998.2 mb]
Winds: from the WSW (240 degrees) at 14 MPH (12 knots; 6.2 m/s)
Visibility: 10 or more miles (16+ km)
Ceiling: 2900 feet AGL
Clouds: overcast cloud deck at 2900 feet AGL
Weather: automated observation with no human augmentation;
there may or may not be significant weather present at this time

METAR text: PAPN 182156Z AUTO 22008KT 10SM BKN027 OVC033 M01/M06 A2946 RMK AO2 SLP979 T10111061 PWINO FZRANO
Conditions at: PAPN (PILOT POINT , AK, US) observed 2156 UTC 18 March 2019
Temperature: -1.1°C (30°F)
Dewpoint: -6.1°C (21°F) [RH = 69%]
Pressure (altimeter): 29.46 inches Hg (997.7 mb)
[Sea-level pressure:  997.9 mb]
Winds: from the SW (220 degrees) at 9 MPH (8 knots; 4.1 m/s)
Visibility: 10 or more miles (16+ km)
Ceiling: 2700 feet AGL
Clouds: broken clouds at 2700 feet AGL
overcast cloud deck at 3300 feet AGL
Weather: automated observation with no human augmentation;
there may or may not be significant weather present at this time

METAR text: PAPN 182152Z AUTO 24012KT 10SM BKN027 OVC033 M02/M06 A2946 RMK AO2 PWINO FZRANO
Conditions at: PAPN (PILOT POINT , AK, US) observed 2152 UTC 18 March 2019
Temperature: -2.0°C (28°F)
Dewpoint: -6.0°C (21°F) [RH = 74%]
Pressure (altimeter): 29.46 inches Hg (997.7 mb)
Winds: from the WSW (240 degrees) at 14 MPH (12 knots; 6.2 m/s)
Visibility: 10 or more miles (16+ km)
Ceiling: 2700 feet AGL
Clouds: broken clouds at 2700 feet AGL
overcast cloud deck at 3300 feet AGL
Weather: automated observation with no human augmentation;
there may or may not be significant weather present at this time

METAR text: PAPN 182056Z AUTO 23015KT 10SM OVC031 M01/M06 A2945 RMK AO2 SLP976 T10111056 53015 PWINO FZRANO
Conditions at: PAPN (PILOT POINT , AK, US) observed 2056 UTC 18 March 2019
Temperature: -1.1°C (30°F)
Dewpoint: -5.6°C (22°F) [RH = 71%]
Pressure (altimeter): 29.45 inches Hg (997.4 mb)
[Sea-level pressure:  997.6 mb]
Winds: from the SW (230 degrees) at 17 MPH (15 knots; 7.7 m/s)
Visibility: 10 or more miles (16+ km)
Ceiling: 3100 feet AGL
Clouds: overcast cloud deck at 3100 feet AGL
Weather: automated observation with no human augmentation;
there may or may not be significant weather present at this time

METAR text: PAPN 181956Z AUTO 22014KT 10SM BKN023 OVC033 M02/M05 A2944 RMK AO2 SLP971 T10171050 PWINO FZRANO
Conditions at: PAPN (PILOT POINT , AK, US) observed 1956 UTC 18 March 2019
Temperature: -1.7°C (29°F)
Dewpoint: -5.0°C (23°F) [RH = 78%]
Pressure (altimeter): 29.44 inches Hg (997.0 mb)
[Sea-level pressure:  997.1 mb]
Winds: from the SW (220 degrees) at 16 MPH (14 knots; 7.2 m/s)
Visibility: 10 or more miles (16+ km)
Ceiling: 2300 feet AGL
Clouds: broken clouds at 2300 feet AGL
overcast cloud deck at 3300 feet AGL
Weather: automated observation with no human augmentation;
there may or may not be significant weather present at this time

METAR text: PAPN 181920Z AUTO 22007KT 10SM BKN019 BKN026 OVC034 M02/M04 A2943 RMK AO2 PWINO FZRANO
Conditions at: PAPN (PILOT POINT , AK, US) observed 1920 UTC 18 March 2019
Temperature: -2.0°C (28°F)
Dewpoint: -4.0°C (25°F) [RH = 86%]
Pressure (altimeter): 29.43 inches Hg (996.7 mb)
Winds: from the SW (220 degrees) at 8 MPH (7 knots; 3.6 m/s)
Visibility: 10 or more miles (16+ km)
Ceiling: 1900 feet AGL
Clouds: broken clouds at 1900 feet AGL
broken clouds at 2600 feet AGL
overcast cloud deck at 3400 feet AGL
Weather: automated observation with no human augmentation;
there may or may not be significant weather present at this time

METAR text: PAPN 181856Z AUTO 19006KT 10SM FEW026 OVC038 M02/M04 A2942 RMK AO2 SLP965 T10221039 PWINO FZRANO
Conditions at: PAPN (PILOT POINT , AK, US) observed 1856 UTC 18 March 2019
Temperature: -2.2°C (28°F)
Dewpoint: -3.9°C (25°F) [RH = 88%]
Pressure (altimeter): 29.42 inches Hg (996.4 mb)
[Sea-level pressure:  996.5 mb]
Winds: from the S (190 degrees) at 7 MPH (6 knots; 3.1 m/s)
Visibility: 10 or more miles (16+ km)
Ceiling: 3800 feet AGL
Clouds: few clouds at 2600 feet AGL
overcast cloud deck at 3800 feet AGL
Weather: automated observation with no human augmentation;
there may or may not be significant weather present at this time

METAR text: PAPN 181756Z AUTO 17005KT 10SM SCT009 BKN032 OVC060 M03/M04 A2941 RMK AO2 SLP961 T10331039 11028 21039 51008 PWINO FZRANO
Conditions at: PAPN (PILOT POINT , AK, US) observed 1756 UTC 18 March 2019
Temperature: -3.3°C (26°F)
Dewpoint: -3.9°C (25°F) [RH = 96%]
Pressure (altimeter): 29.41 inches Hg (996.0 mb)
[Sea-level pressure:  996.1 mb]
Winds: from the S (170 degrees) at 6 MPH (5 knots; 2.6 m/s)
Visibility: 10 or more miles (16+ km)
Ceiling: 3200 feet AGL
Clouds: scattered clouds at 900 feet AGL
broken clouds at 3200 feet AGL
overcast cloud deck at 6000 feet AGL
Weather: automated observation with no human augmentation;
there may or may not be significant weather present at this time

METAR text: PAPN 181749Z AUTO 19005KT 10SM BKN009 BKN028 OVC042 M03/M04 A2941 RMK AO2 PWINO FZRANO
Conditions at: PAPN (PILOT POINT , AK, US) observed 1749 UTC 18 March 2019
Temperature: -3.0°C (27°F)
Dewpoint: -4.0°C (25°F) [RH = 93%]
Pressure (altimeter): 29.41 inches Hg (996.0 mb)
Winds: from the S (190 degrees) at 6 MPH (5 knots; 2.6 m/s)
Visibility: 10 or more miles (16+ km)
Ceiling: 900 feet AGL
Clouds: broken clouds at 900 feet AGL
broken clouds at 2800 feet AGL
overcast cloud deck at 4200 feet AGL
Weather: automated observation with no human augmentation;
there may or may not be significant weather present at this time

METAR text: PAPN 181656Z AUTO 00000KT 10SM SCT005 OVC028 M03/M03 A2941 RMK AO2 SLP959 T10281033 PWINO FZRANO
Conditions at: PAPN (PILOT POINT , AK, US) observed 1656 UTC 18 March 2019
Temperature: -2.8°C (27°F)
Dewpoint: -3.3°C (26°F) [RH = 96%]
Pressure (altimeter): 29.41 inches Hg (996.0 mb)
[Sea-level pressure:  995.9 mb]
Winds: calm
Visibility: 10 or more miles (16+ km)
Ceiling: 2800 feet AGL
Clouds: scattered clouds at 500 feet AGL
overcast cloud deck at 2800 feet AGL
Weather: automated observation with no human augmentation;
there may or may not be significant weather present at this time

METAR text: PAPN 181615Z AUTO 00000KT 10SM OVC005 M03/M04 A2940 RMK AO2 PWINO FZRANO
Conditions at: PAPN (PILOT POINT , AK, US) observed 1615 UTC 18 March 2019
Temperature: -3.0°C (27°F)
Dewpoint: -4.0°C (25°F) [RH = 93%]
Pressure (altimeter): 29.40 inches Hg (995.7 mb)
Winds: calm
Visibility: 10 or more miles (16+ km)
Ceiling: 500 feet AGL
Clouds: overcast cloud deck at 500 feet AGL
Weather: automated observation with no human augmentation;
there may or may not be significant weather present at this time

METAR text: PAPN 181556Z AUTO 13004KT 10SM OVC007 M03/M04 A2940 RMK AO2 SLP957 T10331039 PWINO FZRANO
Conditions at: PAPN (PILOT POINT , AK, US) observed 1556 UTC 18 March 2019
Temperature: -3.3°C (26°F)
Dewpoint: -3.9°C (25°F) [RH = 96%]
Pressure (altimeter): 29.40 inches Hg (995.7 mb)
[Sea-level pressure:  995.7 mb]
Winds: from the SE (130 degrees) at 5 MPH (4 knots; 2.1 m/s)
Visibility: 10 or more miles (16+ km)
Ceiling: 700 feet AGL
Clouds: overcast cloud deck at 700 feet AGL
Weather: automated observation with no human augmentation;
there may or may not be significant weather present at this time

METAR text: PAPN 181539Z AUTO 14003KT 10SM BKN009 OVC028 M04/M04 A2940 RMK AO2 CIG 006V011 PWINO FZRANO
Conditions at: PAPN (PILOT POINT , AK, US) observed 1539 UTC 18 March 2019
Temperature: -4.0°C (25°F)
Dewpoint: -4.0°C (25°F) [RH = 100%]
Pressure (altimeter): 29.40 inches Hg (995.7 mb)
Winds: from the SE (140 degrees) at 3 MPH (3 knots; 1.5 m/s)
Visibility: 10 or more miles (16+ km)
Ceiling: 900 feet AGL
Clouds: broken clouds at 900 feet AGL
overcast cloud deck at 2800 feet AGL
Weather: automated observation with no human augmentation;
there may or may not be significant weather present at this time

METAR text: PAPN 181501Z AUTO 00000KT 10SM BKN011 BKN030 OVC036 M04/M05 A2939 RMK AO2 PWINO FZRANO
Conditions at: PAPN (PILOT POINT , AK, US) observed 1501 UTC 18 March 2019
Temperature: -4.0°C (25°F)
Dewpoint: -5.0°C (23°F) [RH = 93%]
Pressure (altimeter): 29.39 inches Hg (995.3 mb)
Winds: calm
Visibility: 10 or more miles (16+ km)
Ceiling: 1100 feet AGL
Clouds: broken clouds at 1100 feet AGL
broken clouds at 3000 feet AGL
overcast cloud deck at 3600 feet AGL
Weather: automated observation with no human augmentation;
there may or may not be significant weather present at this time

METAR text: PAPN 181456Z AUTO 00000KT 10SM SCT011 BKN030 OVC036 M04/M05 A2939 RMK AO2 SLP953 T10391050 53003 PWINO FZRANO
Conditions at: PAPN (PILOT POINT , AK, US) observed 1456 UTC 18 March 2019
Temperature: -3.9°C (25°F)
Dewpoint: -5.0°C (23°F) [RH = 92%]
Pressure (altimeter): 29.39 inches Hg (995.3 mb)
[Sea-level pressure:  995.3 mb]
Winds: calm
Visibility: 10 or more miles (16+ km)
Ceiling: 3000 feet AGL
Clouds: scattered clouds at 1100 feet AGL
broken clouds at 3000 feet AGL
overcast cloud deck at 3600 feet AGL
Weather: automated observation with no human augmentation;
there may or may not be significant weather present at this time

METAR text: PAPN 181447Z AUTO 00000KT 10SM SCT023 BKN030 OVC036 M04/M05 A2939 RMK AO2 PWINO FZRANO
Conditions at: PAPN (PILOT POINT , AK, US) observed 1447 UTC 18 March 2019
Temperature: -4.0°C (25°F)
Dewpoint: -5.0°C (23°F) [RH = 93%]
Pressure (altimeter): 29.39 inches Hg (995.3 mb)
Winds: calm
Visibility: 10 or more miles (16+ km)
Ceiling: 3000 feet AGL
Clouds: scattered clouds at 2300 feet AGL
broken clouds at 3000 feet AGL
overcast cloud deck at 3600 feet AGL
Weather: automated observation with no human augmentation;
there may or may not be significant weather present at this time

METAR text: PAPN 181434Z AUTO 00000KT 9SM BKN023 BKN030 OVC070 M04/M05 A2938 RMK AO2 PWINO FZRANO
Conditions at: PAPN (PILOT POINT , AK, US) observed 1434 UTC 18 March 2019
Temperature: -4.0°C (25°F)
Dewpoint: -5.0°C (23°F) [RH = 93%]
Pressure (altimeter): 29.38 inches Hg (995.0 mb)
Winds: calm
Visibility: 9 miles (14 km)
Ceiling: 2300 feet AGL
Clouds: broken clouds at 2300 feet AGL
broken clouds at 3000 feet AGL
overcast cloud deck at 7000 feet AGL
Weather: automated observation with no human augmentation;
there may or may not be significant weather present at this time

METAR text: PAPN 181356Z AUTO 00000KT 4SM BR SCT025 OVC075 M03/M04 A2938 RMK AO2 SLP950 T10331044 PWINO FZRANO
Conditions at: PAPN (PILOT POINT , AK, US) observed 1356 UTC 18 March 2019
Temperature: -3.3°C (26°F)
Dewpoint: -4.4°C (24°F) [RH = 92%]
Pressure (altimeter): 29.38 inches Hg (995.0 mb)
[Sea-level pressure:  995.0 mb]
Winds: calm
Visibility: 4 miles ( 6 km)
Ceiling: 7500 feet AGL
Clouds: scattered clouds at 2500 feet AGL
overcast cloud deck at 7500 feet AGL
Weather: BR  (mist)

METAR text: PAPN 181317Z AUTO 35003KT 3SM BR SCT007 BKN016 OVC030 M03/M04 A2938 RMK AO2 PWINO FZRANO
Conditions at: PAPN (PILOT POINT , AK, US) observed 1317 UTC 18 March 2019
Temperature: -3.0°C (27°F)
Dewpoint: -4.0°C (25°F) [RH = 93%]
Pressure (altimeter): 29.38 inches Hg (995.0 mb)
Winds: from the N (350 degrees) at 3 MPH (3 knots; 1.5 m/s)
Visibility: 3 miles ( 5 km)
Ceiling: 1600 feet AGL
Clouds: scattered clouds at 700 feet AGL
broken clouds at 1600 feet AGL
overcast cloud deck at 3000 feet AGL
Weather: BR  (mist)

METAR text: PAPN 181312Z AUTO 35003KT 2 1/2SM BR SCT007 BKN011 OVC030 M03/M04 A2938 RMK AO2 PWINO FZRANO
Conditions at: PAPN (PILOT POINT , AK, US) observed 1312 UTC 18 March 2019
Temperature: -3.0°C (27°F)
Dewpoint: -4.0°C (25°F) [RH = 93%]
Pressure (altimeter): 29.38 inches Hg (995.0 mb)
Winds: from the N (350 degrees) at 3 MPH (3 knots; 1.5 m/s)
Visibility: 2.50 miles (4.02 km)
Ceiling: 1100 feet AGL
Clouds: scattered clouds at 700 feet AGL
broken clouds at 1100 feet AGL
overcast cloud deck at 3000 feet AGL
Weather: BR  (mist)

METAR text: PAPN 181256Z AUTO 34004KT 3SM BR FEW006 BKN025 OVC030 M03/M04 A2937 RMK AO2 SLP949 T10331039 PWINO FZRANO
Conditions at: PAPN (PILOT POINT , AK, US) observed 1256 UTC 18 March 2019
Temperature: -3.3°C (26°F)
Dewpoint: -3.9°C (25°F) [RH = 96%]
Pressure (altimeter): 29.37 inches Hg (994.7 mb)
[Sea-level pressure:  994.9 mb]
Winds: from the NNW (340 degrees) at 5 MPH (4 knots; 2.1 m/s)
Visibility: 3 miles ( 5 km)
Ceiling: 2500 feet AGL
Clouds: few clouds at 600 feet AGL
broken clouds at 2500 feet AGL
overcast cloud deck at 3000 feet AGL
Weather: BR  (mist)

METAR text: PAPN 181254Z AUTO 34003KT 3SM BR FEW006 SCT018 OVC028 M03/M04 A2938 RMK AO2 PWINO FZRANO
Conditions at: PAPN (PILOT POINT , AK, US) observed 1254 UTC 18 March 2019
Temperature: -3.0°C (27°F)
Dewpoint: -4.0°C (25°F) [RH = 93%]
Pressure (altimeter): 29.38 inches Hg (995.0 mb)
Winds: from the NNW (340 degrees) at 3 MPH (3 knots; 1.5 m/s)
Visibility: 3 miles ( 5 km)
Ceiling: 2800 feet AGL
Clouds: few clouds at 600 feet AGL
scattered clouds at 1800 feet AGL
overcast cloud deck at 2800 feet AGL
Weather: BR  (mist)

METAR text: PAPN 181248Z AUTO 34003KT 1 1/2SM BR FEW008 BKN018 OVC028 M03/M04 A2938 RMK AO2 PWINO FZRANO
Conditions at: PAPN (PILOT POINT , AK, US) observed 1248 UTC 18 March 2019
Temperature: -3.0°C (27°F)
Dewpoint: -4.0°C (25°F) [RH = 93%]
Pressure (altimeter): 29.38 inches Hg (995.0 mb)
Winds: from the NNW (340 degrees) at 3 MPH (3 knots; 1.5 m/s)
Visibility: 1.50 miles (2.41 km)
Ceiling: 1800 feet AGL
Clouds: few clouds at 800 feet AGL
broken clouds at 1800 feet AGL
overcast cloud deck at 2800 feet AGL
Weather: BR  (mist)

METAR text: PAPN 181241Z AUTO 35004KT 2SM BR FEW008 SCT013 OVC025 M03/M04 A2938 RMK AO2 PWINO FZRANO
Conditions at: PAPN (PILOT POINT , AK, US) observed 1241 UTC 18 March 2019
Temperature: -3.0°C (27°F)
Dewpoint: -4.0°C (25°F) [RH = 93%]
Pressure (altimeter): 29.38 inches Hg (995.0 mb)
Winds: from the N (350 degrees) at 5 MPH (4 knots; 2.1 m/s)
Visibility: 2.00 miles (3.22 km)
Ceiling: 2500 feet AGL
Clouds: few clouds at 800 feet AGL
scattered clouds at 1300 feet AGL
overcast cloud deck at 2500 feet AGL
Weather: BR  (mist)

METAR text: PAPN 181232Z AUTO 34004KT 3SM BR FEW012 SCT017 OVC023 M03/M04 A2938 RMK AO2 PWINO FZRANO
Conditions at: PAPN (PILOT POINT , AK, US) observed 1232 UTC 18 March 2019
Temperature: -3.0°C (27°F)
Dewpoint: -4.0°C (25°F) [RH = 93%]
Pressure (altimeter): 29.38 inches Hg (995.0 mb)
Winds: from the NNW (340 degrees) at 5 MPH (4 knots; 2.1 m/s)
Visibility: 3 miles ( 5 km)
Ceiling: 2300 feet AGL
Clouds: few clouds at 1200 feet AGL
scattered clouds at 1700 feet AGL
overcast cloud deck at 2300 feet AGL
Weather: BR  (mist)

METAR text: PAPN 181220Z AUTO 35004KT 1 3/4SM BR SCT010 SCT013 OVC017 M03/M04 A2938 RMK AO2 PWINO FZRANO
Conditions at: PAPN (PILOT POINT , AK, US) observed 1220 UTC 18 March 2019
Temperature: -3.0°C (27°F)
Dewpoint: -4.0°C (25°F) [RH = 93%]
Pressure (altimeter): 29.38 inches Hg (995.0 mb)
Winds: from the N (350 degrees) at 5 MPH (4 knots; 2.1 m/s)
Visibility: 1.75 miles (2.82 km)
Ceiling: 1700 feet AGL
Clouds: scattered clouds at 1000 feet AGL
scattered clouds at 1300 feet AGL
overcast cloud deck at 1700 feet AGL
Weather: BR  (mist)

METAR text: PAPN 181216Z AUTO 36004KT 3SM BR FEW010 OVC017 M03/M04 A2938 RMK AO2 PWINO FZRANO
Conditions at: PAPN (PILOT POINT , AK, US) observed 1216 UTC 18 March 2019
Temperature: -3.0°C (27°F)
Dewpoint: -4.0°C (25°F) [RH = 93%]
Pressure (altimeter): 29.38 inches Hg (995.0 mb)
Winds: from the N (360 degrees) at 5 MPH (4 knots; 2.1 m/s)
Visibility: 3 miles ( 5 km)
Ceiling: 1700 feet AGL
Clouds: few clouds at 1000 feet AGL
overcast cloud deck at 1700 feet AGL
Weather: BR  (mist)

METAR text: PAPN 181203Z AUTO 35003KT 4SM BR SCT006 BKN011 OVC033 M03/M04 A2938 RMK AO2 CIG 009V014 PWINO FZRANO
Conditions at: PAPN (PILOT POINT , AK, US) observed 1203 UTC 18 March 2019
Temperature: -3.0°C (27°F)
Dewpoint: -4.0°C (25°F) [RH = 93%]
Pressure (altimeter): 29.38 inches Hg (995.0 mb)
Winds: from the N (350 degrees) at 3 MPH (3 knots; 1.5 m/s)
Visibility: 4 miles ( 6 km)
Ceiling: 1100 feet AGL
Clouds: scattered clouds at 600 feet AGL
broken clouds at 1100 feet AGL
overcast cloud deck at 3300 feet AGL
Weather: BR  (mist)

METAR text: PAPN 181156Z AUTO 34004KT 2 1/2SM BR BKN006 OVC011 M03/M04 A2938 RMK AO2 VIS 1 1/2V4 CIG 004V010 SLP950 T10281039 11028 21033 53012 PWINO FZRANO
Conditions at: PAPN (PILOT POINT , AK, US) observed 1156 UTC 18 March 2019
Temperature: -2.8°C (27°F)
Dewpoint: -3.9°C (25°F) [RH = 92%]
Pressure (altimeter): 29.38 inches Hg (995.0 mb)
[Sea-level pressure:  995.0 mb]
Winds: from the NNW (340 degrees) at 5 MPH (4 knots; 2.1 m/s)
Visibility: 2.50 miles (4.02 km)
Ceiling: 600 feet AGL
Clouds: broken clouds at 600 feet AGL
overcast cloud deck at 1100 feet AGL
Weather: BR  (mist)

METAR text: PAPN 181139Z AUTO 36006KT 1 1/2SM BR BKN006 OVC015 M03/M03 A2938 RMK AO2 VIS 1V5 CIG 005V010 PWINO FZRANO
Conditions at: PAPN (PILOT POINT , AK, US) observed 1139 UTC 18 March 2019
Temperature: -3.0°C (27°F)
Dewpoint: -3.0°C (27°F) [RH = 100%]
Pressure (altimeter): 29.38 inches Hg (995.0 mb)
Winds: from the N (360 degrees) at 7 MPH (6 knots; 3.1 m/s)
Visibility: 1.50 miles (2.41 km)
Ceiling: 600 feet AGL
Clouds: broken clouds at 600 feet AGL
overcast cloud deck at 1500 feet AGL
Weather: BR  (mist)

METAR text: PAPN 181132Z AUTO 34008KT 2SM BR BKN006 BKN015 OVC021 M03/M03 A2937 RMK AO2 VIS 1V5 CIG 005V009 PWINO FZRANO
Conditions at: PAPN (PILOT POINT , AK, US) observed 1132 UTC 18 March 2019
Temperature: -3.0°C (27°F)
Dewpoint: -3.0°C (27°F) [RH = 100%]
Pressure (altimeter): 29.37 inches Hg (994.7 mb)
Winds: from the NNW (340 degrees) at 9 MPH (8 knots; 4.1 m/s)
Visibility: 2.00 miles (3.22 km)
Ceiling: 600 feet AGL
Clouds: broken clouds at 600 feet AGL
broken clouds at 1500 feet AGL
overcast cloud deck at 2100 feet AGL
Weather: BR  (mist)

METAR text: PAPN 181127Z AUTO 33007KT 3SM BR SCT008 BKN017 OVC040 M03/M03 A2937 RMK AO2 PWINO FZRANO
Conditions at: PAPN (PILOT POINT , AK, US) observed 1127 UTC 18 March 2019
Temperature: -3.0°C (27°F)
Dewpoint: -3.0°C (27°F) [RH = 100%]
Pressure (altimeter): 29.37 inches Hg (994.7 mb)
Winds: from the NNW (330 degrees) at 8 MPH (7 knots; 3.6 m/s)
Visibility: 3 miles ( 5 km)
Ceiling: 1700 feet AGL
Clouds: scattered clouds at 800 feet AGL
broken clouds at 1700 feet AGL
overcast cloud deck at 4000 feet AGL
Weather: BR  (mist)

METAR text: PAPN 181116Z AUTO 32008KT 4SM BR FEW008 BKN014 OVC042 M03/M03 A2937 RMK AO2 PWINO FZRANO
Conditions at: PAPN (PILOT POINT , AK, US) observed 1116 UTC 18 March 2019
Temperature: -3.0°C (27°F)
Dewpoint: -3.0°C (27°F) [RH = 100%]
Pressure (altimeter): 29.37 inches Hg (994.7 mb)
Winds: from the NW (320 degrees) at 9 MPH (8 knots; 4.1 m/s)
Visibility: 4 miles ( 6 km)
Ceiling: 1400 feet AGL
Clouds: few clouds at 800 feet AGL
broken clouds at 1400 feet AGL
overcast cloud deck at 4200 feet AGL
Weather: BR  (mist)

METAR text: PAPN 181056Z AUTO 32006KT 6SM BR FEW008 BKN041 OVC048 M03/M03 A2937 RMK AO2 SLP947 T10281033 PWINO FZRANO
Conditions at: PAPN (PILOT POINT , AK, US) observed 1056 UTC 18 March 2019
Temperature: -2.8°C (27°F)
Dewpoint: -3.3°C (26°F) [RH = 96%]
Pressure (altimeter): 29.37 inches Hg (994.7 mb)
[Sea-level pressure:  994.7 mb]
Winds: from the NW (320 degrees) at 7 MPH (6 knots; 3.1 m/s)
Visibility: 6 miles (10 km)
Ceiling: 4100 feet AGL
Clouds: few clouds at 800 feet AGL
broken clouds at 4100 feet AGL
overcast cloud deck at 4800 feet AGL
Weather: BR  (mist)

METAR text: PAPN 181006Z AUTO 32009KT 6SM BR SCT007 BKN016 OVC039 M03/M03 A2935 RMK AO2 PWINO FZRANO
Conditions at: PAPN (PILOT POINT , AK, US) observed 1006 UTC 18 March 2019
Temperature: -3.0°C (27°F)
Dewpoint: -3.0°C (27°F) [RH = 100%]
Pressure (altimeter): 29.35 inches Hg (994.0 mb)
Winds: from the NW (320 degrees) at 10 MPH (9 knots; 4.6 m/s)
Visibility: 6 miles (10 km)
Ceiling: 1600 feet AGL
Clouds: scattered clouds at 700 feet AGL
broken clouds at 1600 feet AGL
overcast cloud deck at 3900 feet AGL
Weather: BR  (mist)

METAR text: PAPN 180956Z AUTO 32011KT 5SM BR BKN007 BKN016 OVC038 M03/M03 A2935 RMK AO2 CIG 006V010 SLP940 T10281033 PWINO FZRANO
Conditions at: PAPN (PILOT POINT , AK, US) observed 0956 UTC 18 March 2019
Temperature: -2.8°C (27°F)
Dewpoint: -3.3°C (26°F) [RH = 96%]
Pressure (altimeter): 29.35 inches Hg (994.0 mb)
[Sea-level pressure:  994.0 mb]
Winds: from the NW (320 degrees) at 13 MPH (11 knots; 5.7 m/s)
Visibility: 5 miles ( 8 km)
Ceiling: 700 feet AGL
Clouds: broken clouds at 700 feet AGL
broken clouds at 1600 feet AGL
overcast cloud deck at 3800 feet AGL
Weather: BR  (mist)

METAR text: PAPN 180931Z AUTO 31009KT 4SM BR BKN007 OVC016 M03/M03 A2935 RMK AO2 CIG 005V010 PWINO FZRANO
Conditions at: PAPN (PILOT POINT , AK, US) observed 0931 UTC 18 March 2019
Temperature: -3.0°C (27°F)
Dewpoint: -3.0°C (27°F) [RH = 100%]
Pressure (altimeter): 29.35 inches Hg (994.0 mb)
Winds: from the NW (310 degrees) at 10 MPH (9 knots; 4.6 m/s)
Visibility: 4 miles ( 6 km)
Ceiling: 700 feet AGL
Clouds: broken clouds at 700 feet AGL
overcast cloud deck at 1600 feet AGL
Weather: BR  (mist)

METAR text: PAPN 180906Z AUTO 35008KT 2 1/2SM BR BKN009 OVC016 M03/M04 A2934 RMK AO2 CIG 007V011 PWINO FZRANO
Conditions at: PAPN (PILOT POINT , AK, US) observed 0906 UTC 18 March 2019
Temperature: -3.0°C (27°F)
Dewpoint: -4.0°C (25°F) [RH = 93%]
Pressure (altimeter): 29.34 inches Hg (993.6 mb)
Winds: from the N (350 degrees) at 9 MPH (8 knots; 4.1 m/s)
Visibility: 2.50 miles (4.02 km)
Ceiling: 900 feet AGL
Clouds: broken clouds at 900 feet AGL
overcast cloud deck at 1600 feet AGL
Weather: BR  (mist)

METAR text: PAPN 180856Z AUTO 34010KT 3SM BR BKN011 BKN019 OVC027 M03/M04 A2934 RMK AO2 SLP938 T10281039 53012 PWINO FZRANO
Conditions at: PAPN (PILOT POINT , AK, US) observed 0856 UTC 18 March 2019
Temperature: -2.8°C (27°F)
Dewpoint: -3.9°C (25°F) [RH = 92%]
Pressure (altimeter): 29.34 inches Hg (993.6 mb)
[Sea-level pressure:  993.8 mb]
Winds: from the NNW (340 degrees) at 12 MPH (10 knots; 5.1 m/s)
Visibility: 3 miles ( 5 km)
Ceiling: 1100 feet AGL
Clouds: broken clouds at 1100 feet AGL
broken clouds at 1900 feet AGL
overcast cloud deck at 2700 feet AGL
Weather: BR  (mist)

METAR text: PAPN 180851Z AUTO 34009KT 3SM BR BKN013 BKN019 OVC027 M03/M04 A2934 RMK AO2 PWINO FZRANO
Conditions at: PAPN (PILOT POINT , AK, US) observed 0851 UTC 18 March 2019
Temperature: -3.0°C (27°F)
Dewpoint: -4.0°C (25°F) [RH = 93%]
Pressure (altimeter): 29.34 inches Hg (993.6 mb)
Winds: from the NNW (340 degrees) at 10 MPH (9 knots; 4.6 m/s)
Visibility: 3 miles ( 5 km)
Ceiling: 1300 feet AGL
Clouds: broken clouds at 1300 feet AGL
broken clouds at 1900 feet AGL
overcast cloud deck at 2700 feet AGL
Weather: BR  (mist)

METAR text: PAPN 180839Z AUTO 35009KT 2 1/2SM BR FEW011 BKN018 OVC027 M03/M04 A2934 RMK AO2 VIS 1 1/4V5 PWINO FZRANO
Conditions at: PAPN (PILOT POINT , AK, US) observed 0839 UTC 18 March 2019
Temperature: -3.0°C (27°F)
Dewpoint: -4.0°C (25°F) [RH = 93%]
Pressure (altimeter): 29.34 inches Hg (993.6 mb)
Winds: from the N (350 degrees) at 10 MPH (9 knots; 4.6 m/s)
Visibility: 2.50 miles (4.02 km)
Ceiling: 1800 feet AGL
Clouds: few clouds at 1100 feet AGL
broken clouds at 1800 feet AGL
overcast cloud deck at 2700 feet AGL
Weather: BR  (mist)

METAR text: PAPN 180828Z AUTO 34011KT 4SM BR FEW008 BKN013 OVC027 M03/M04 A2934 RMK AO2 PWINO FZRANO
Conditions at: PAPN (PILOT POINT , AK, US) observed 0828 UTC 18 March 2019
Temperature: -3.0°C (27°F)
Dewpoint: -4.0°C (25°F) [RH = 93%]
Pressure (altimeter): 29.34 inches Hg (993.6 mb)
Winds: from the NNW (340 degrees) at 13 MPH (11 knots; 5.7 m/s)
Visibility: 4 miles ( 6 km)
Ceiling: 1300 feet AGL
Clouds: few clouds at 800 feet AGL
broken clouds at 1300 feet AGL
overcast cloud deck at 2700 feet AGL
Weather: BR  (mist)

METAR text: PAPN 180756Z AUTO 34008KT 5SM BR FEW015 BKN025 OVC030 M03/M04 A2933 RMK AO2 SLP932 T10281039 410111033 PWINO FZRANO
Conditions at: PAPN (PILOT POINT , AK, US) observed 0756 UTC 18 March 2019
Temperature: -2.8°C (27°F)
Dewpoint: -3.9°C (25°F) [RH = 92%]
Pressure (altimeter): 29.33 inches Hg (993.3 mb)
[Sea-level pressure:  993.2 mb]
Winds: from the NNW (340 degrees) at 9 MPH (8 knots; 4.1 m/s)
Visibility: 5 miles ( 8 km)
Ceiling: 2500 feet AGL
Clouds: few clouds at 1500 feet AGL
broken clouds at 2500 feet AGL
overcast cloud deck at 3000 feet AGL
Weather: BR  (mist)

METAR text: PAPN 180740Z AUTO 35009KT 4SM BR FEW007 BKN022 OVC028 M03/M03 A2932 RMK AO2 PWINO FZRANO
Conditions at: PAPN (PILOT POINT , AK, US) observed 0740 UTC 18 March 2019
Temperature: -3.0°C (27°F)
Dewpoint: -3.0°C (27°F) [RH = 100%]
Pressure (altimeter): 29.32 inches Hg (993.0 mb)
Winds: from the N (350 degrees) at 10 MPH (9 knots; 4.6 m/s)
Visibility: 4 miles ( 6 km)
Ceiling: 2200 feet AGL
Clouds: few clouds at 700 feet AGL
broken clouds at 2200 feet AGL
overcast cloud deck at 2800 feet AGL
Weather: BR  (mist)

METAR text: PAPN 180727Z AUTO 35010KT 3SM BR SCT009 BKN012 OVC025 M03/M03 A2932 RMK AO2 PWINO FZRANO
Conditions at: PAPN (PILOT POINT , AK, US) observed 0727 UTC 18 March 2019
Temperature: -3.0°C (27°F)
Dewpoint: -3.0°C (27°F) [RH = 100%]
Pressure (altimeter): 29.32 inches Hg (993.0 mb)
Winds: from the N (350 degrees) at 12 MPH (10 knots; 5.1 m/s)
Visibility: 3 miles ( 5 km)
Ceiling: 1200 feet AGL
Clouds: scattered clouds at 900 feet AGL
broken clouds at 1200 feet AGL
overcast cloud deck at 2500 feet AGL
Weather: BR  (mist)

METAR text: PAPN 180717Z AUTO 35010KT 2SM BR BKN009 BKN013 OVC020 M03/M04 A2932 RMK AO2 VIS 1V5 CIG 006V013 PWINO FZRANO
Conditions at: PAPN (PILOT POINT , AK, US) observed 0717 UTC 18 March 2019
Temperature: -3.0°C (27°F)
Dewpoint: -4.0°C (25°F) [RH = 93%]
Pressure (altimeter): 29.32 inches Hg (993.0 mb)
Winds: from the N (350 degrees) at 12 MPH (10 knots; 5.1 m/s)
Visibility: 2.00 miles (3.22 km)
Ceiling: 900 feet AGL
Clouds: broken clouds at 900 feet AGL
broken clouds at 1300 feet AGL
overcast cloud deck at 2000 feet AGL
Weather: BR  (mist)

METAR text: PAPN 180710Z AUTO 35008KT 5SM BR SCT009 BKN013 OVC027 M03/M04 A2932 RMK AO2 PWINO FZRANO
Conditions at: PAPN (PILOT POINT , AK, US) observed 0710 UTC 18 March 2019
Temperature: -3.0°C (27°F)
Dewpoint: -4.0°C (25°F) [RH = 93%]
Pressure (altimeter): 29.32 inches Hg (993.0 mb)
Winds: from the N (350 degrees) at 9 MPH (8 knots; 4.1 m/s)
Visibility: 5 miles ( 8 km)
Ceiling: 1300 feet AGL
Clouds: scattered clouds at 900 feet AGL
broken clouds at 1300 feet AGL
overcast cloud deck at 2700 feet AGL
Weather: BR  (mist)

METAR text: PAPN 180656Z AUTO 35011KT 3SM BR SCT012 BKN022 OVC027 M03/M04 A2931 RMK AO2 SLP928 T10281039 PWINO FZRANO
Conditions at: PAPN (PILOT POINT , AK, US) observed 0656 UTC 18 March 2019
Temperature: -2.8°C (27°F)
Dewpoint: -3.9°C (25°F) [RH = 92%]
Pressure (altimeter): 29.31 inches Hg (992.6 mb)
[Sea-level pressure:  992.8 mb]
Winds: from the N (350 degrees) at 13 MPH (11 knots; 5.7 m/s)
Visibility: 3 miles ( 5 km)
Ceiling: 2200 feet AGL
Clouds: scattered clouds at 1200 feet AGL
broken clouds at 2200 feet AGL
overcast cloud deck at 2700 feet AGL
Weather: BR  (mist)

METAR text: PAPN 180616Z AUTO 35009KT 3SM BR FEW014 OVC028 M03/M04 A2931 RMK AO2 PWINO FZRANO
Conditions at: PAPN (PILOT POINT , AK, US) observed 0616 UTC 18 March 2019
Temperature: -3.0°C (27°F)
Dewpoint: -4.0°C (25°F) [RH = 93%]
Pressure (altimeter): 29.31 inches Hg (992.6 mb)
Winds: from the N (350 degrees) at 10 MPH (9 knots; 4.6 m/s)
Visibility: 3 miles ( 5 km)
Ceiling: 2800 feet AGL
Clouds: few clouds at 1400 feet AGL
overcast cloud deck at 2800 feet AGL
Weather: BR  (mist)

METAR text: PAPN 180556Z AUTO 35011KT 2SM BR SCT012 SCT022 OVC027 M03/M04 A2931 RMK AO2 SLP926 T10281039 11017 21028 51006 PWINO FZRANO
Conditions at: PAPN (PILOT POINT , AK, US) observed 0556 UTC 18 March 2019
Temperature: -2.8°C (27°F)
Dewpoint: -3.9°C (25°F) [RH = 92%]
Pressure (altimeter): 29.31 inches Hg (992.6 mb)
[Sea-level pressure:  992.6 mb]
Winds: from the N (350 degrees) at 13 MPH (11 knots; 5.7 m/s)
Visibility: 2.00 miles (3.22 km)
Ceiling: 2700 feet AGL
Clouds: scattered clouds at 1200 feet AGL
scattered clouds at 2200 feet AGL
overcast cloud deck at 2700 feet AGL
Weather: BR  (mist)

METAR text: PAPN 180553Z AUTO 35011KT 2 1/2SM BR FEW012 SCT017 OVC025 M03/M04 A2931 RMK AO2 PWINO FZRANO
Conditions at: PAPN (PILOT POINT , AK, US) observed 0553 UTC 18 March 2019
Temperature: -3.0°C (27°F)
Dewpoint: -4.0°C (25°F) [RH = 93%]
Pressure (altimeter): 29.31 inches Hg (992.6 mb)
Winds: from the N (350 degrees) at 13 MPH (11 knots; 5.7 m/s)
Visibility: 2.50 miles (4.02 km)
Ceiling: 2500 feet AGL
Clouds: few clouds at 1200 feet AGL
scattered clouds at 1700 feet AGL
overcast cloud deck at 2500 feet AGL
Weather: BR  (mist)

METAR text: PAPN 180514Z AUTO 34012KT 3SM BR SCT009 BKN018 OVC030 M03/M03 A2931 RMK AO2 PWINO FZRANO
Conditions at: PAPN (PILOT POINT , AK, US) observed 0514 UTC 18 March 2019
Temperature: -3.0°C (27°F)
Dewpoint: -3.0°C (27°F) [RH = 100%]
Pressure (altimeter): 29.31 inches Hg (992.6 mb)
Winds: from the NNW (340 degrees) at 14 MPH (12 knots; 6.2 m/s)
Visibility: 3 miles ( 5 km)
Ceiling: 1800 feet AGL
Clouds: scattered clouds at 900 feet AGL
broken clouds at 1800 feet AGL
overcast cloud deck at 3000 feet AGL
Weather: BR  (mist)

METAR text: PAPN 180508Z AUTO 34012KT 2 1/2SM BR BKN006 BKN019 OVC036 M03/M03 A2930 RMK AO2 CIG 004V012 PWINO FZRANO
Conditions at: PAPN (PILOT POINT , AK, US) observed 0508 UTC 18 March 2019
Temperature: -3.0°C (27°F)
Dewpoint: -3.0°C (27°F) [RH = 100%]
Pressure (altimeter): 29.30 inches Hg (992.3 mb)
Winds: from the NNW (340 degrees) at 14 MPH (12 knots; 6.2 m/s)
Visibility: 2.50 miles (4.02 km)
Ceiling: 600 feet AGL
Clouds: broken clouds at 600 feet AGL
broken clouds at 1900 feet AGL
overcast cloud deck at 3600 feet AGL
Weather: BR  (mist)

METAR text: PAPN 180501Z AUTO 34012KT 1 1/2SM BR SCT006 BKN019 OVC034 M03/M03 A2930 RMK AO2 PWINO FZRANO
Conditions at: PAPN (PILOT POINT , AK, US) observed 0501 UTC 18 March 2019
Temperature: -3.0°C (27°F)
Dewpoint: -3.0°C (27°F) [RH = 100%]
Pressure (altimeter): 29.30 inches Hg (992.3 mb)
Winds: from the NNW (340 degrees) at 14 MPH (12 knots; 6.2 m/s)
Visibility: 1.50 miles (2.41 km)
Ceiling: 1900 feet AGL
Clouds: scattered clouds at 600 feet AGL
broken clouds at 1900 feet AGL
overcast cloud deck at 3400 feet AGL
Weather: BR  (mist)

METAR text: PAPN 180456Z AUTO 34011KT 1 1/2SM BR BKN006 BKN012 OVC025 M03/M03 A2930 RMK AO2 CIG 004V009 SLP925 T10281033 PWINO FZRANO
Conditions at: PAPN (PILOT POINT , AK, US) observed 0456 UTC 18 March 2019
Temperature: -2.8°C (27°F)
Dewpoint: -3.3°C (26°F) [RH = 96%]
Pressure (altimeter): 29.30 inches Hg (992.3 mb)
[Sea-level pressure:  992.5 mb]
Winds: from the NNW (340 degrees) at 13 MPH (11 knots; 5.7 m/s)
Visibility: 1.50 miles (2.41 km)
Ceiling: 600 feet AGL
Clouds: broken clouds at 600 feet AGL
broken clouds at 1200 feet AGL
overcast cloud deck at 2500 feet AGL
Weather: BR  (mist)

METAR text: PAPN 180452Z AUTO 33012KT 1 1/4SM BR FEW006 BKN009 OVC025 M03/M03 A2930 RMK AO2 CIG 006V012 PWINO FZRANO
Conditions at: PAPN (PILOT POINT , AK, US) observed 0452 UTC 18 March 2019
Temperature: -3.0°C (27°F)
Dewpoint: -3.0°C (27°F) [RH = 100%]
Pressure (altimeter): 29.30 inches Hg (992.3 mb)
Winds: from the NNW (330 degrees) at 14 MPH (12 knots; 6.2 m/s)
Visibility: 1.25 miles (2.01 km)
Ceiling: 900 feet AGL
Clouds: few clouds at 600 feet AGL
broken clouds at 900 feet AGL
overcast cloud deck at 2500 feet AGL
Weather: BR  (mist)

METAR text: PAPN 180444Z AUTO 34012G17KT 3/4SM BR BKN006 BKN013 OVC020 M03/M03 A2930 RMK AO2 CIG 004V010 PWINO FZRANO
Conditions at: PAPN (PILOT POINT , AK, US) observed 0444 UTC 18 March 2019
Temperature: -3.0°C (27°F)
Dewpoint: -3.0°C (27°F) [RH = 100%]
Pressure (altimeter): 29.30 inches Hg (992.3 mb)
Winds: from the NNW (340 degrees) at 14 MPH (12 knots; 6.2 m/s)
gusting to 20 MPH (17 knots; 8.7 m/s)
Visibility: 0.75 miles (1.21 km)
Ceiling: 600 feet AGL
Clouds: broken clouds at 600 feet AGL
broken clouds at 1300 feet AGL
overcast cloud deck at 2000 feet AGL
Weather: BR  (mist)

METAR text: PAPN 180441Z AUTO 34010KT 1 1/4SM BR BKN006 BKN013 OVC020 M03/M03 A2930 RMK AO2 CIG 004V010 PWINO FZRANO
Conditions at: PAPN (PILOT POINT , AK, US) observed 0441 UTC 18 March 2019
Temperature: -3.0°C (27°F)
Dewpoint: -3.0°C (27°F) [RH = 100%]
Pressure (altimeter): 29.30 inches Hg (992.3 mb)
Winds: from the NNW (340 degrees) at 12 MPH (10 knots; 5.1 m/s)
Visibility: 1.25 miles (2.01 km)
Ceiling: 600 feet AGL
Clouds: broken clouds at 600 feet AGL
broken clouds at 1300 feet AGL
overcast cloud deck at 2000 feet AGL
Weather: BR  (mist)

METAR text: PAPN 180429Z AUTO 32015KT 1SM BR BKN006 OVC013 M03/M03 A2930 RMK AO2 CIG 003V010 PWINO FZRANO
Conditions at: PAPN (PILOT POINT , AK, US) observed 0429 UTC 18 March 2019
Temperature: -3.0°C (27°F)
Dewpoint: -3.0°C (27°F) [RH = 100%]
Pressure (altimeter): 29.30 inches Hg (992.3 mb)
Winds: from the NW (320 degrees) at 17 MPH (15 knots; 7.7 m/s)
Visibility: 1.00 miles (1.61 km)
Ceiling: 600 feet AGL
Clouds: broken clouds at 600 feet AGL
overcast cloud deck at 1300 feet AGL
Weather: BR  (mist)

METAR text: PAPN 180407Z AUTO 34016G22KT 3/4SM BR BKN006 OVC013 M03/M03 A2929 RMK AO2 CIG 003V008 PWINO FZRANO
Conditions at: PAPN (PILOT POINT , AK, US) observed 0407 UTC 18 March 2019
Temperature: -3.0°C (27°F)
Dewpoint: -3.0°C (27°F) [RH = 100%]
Pressure (altimeter): 29.29 inches Hg (992.0 mb)
Winds: from the NNW (340 degrees) at 18 MPH (16 knots; 8.2 m/s)
gusting to 25 MPH (22 knots; 11.3 m/s)
Visibility: 0.75 miles (1.21 km)
Ceiling: 600 feet AGL
Clouds: broken clouds at 600 feet AGL
overcast cloud deck at 1300 feet AGL
Weather: BR  (mist)

METAR text: PAPN 180356Z AUTO 34014G21KT 1SM BR BKN006 OVC014 M03/M03 A2929 RMK AO2 CIG 004V010 SLP920 T10281033 PWINO FZRANO
Conditions at: PAPN (PILOT POINT , AK, US) observed 0356 UTC 18 March 2019
Temperature: -2.8°C (27°F)
Dewpoint: -3.3°C (26°F) [RH = 96%]
Pressure (altimeter): 29.29 inches Hg (992.0 mb)
[Sea-level pressure:  992.0 mb]
Winds: from the NNW (340 degrees) at 16 MPH (14 knots; 7.2 m/s)
gusting to 24 MPH (21 knots; 10.8 m/s)
Visibility: 1.00 miles (1.61 km)
Ceiling: 600 feet AGL
Clouds: broken clouds at 600 feet AGL
overcast cloud deck at 1400 feet AGL
Weather: BR  (mist)

METAR text: PAPN 180349Z AUTO 34018G21KT 3/4SM BR OVC006 M02/M03 A2929 RMK AO2 CIG 004V010 PWINO FZRANO
Conditions at: PAPN (PILOT POINT , AK, US) observed 0349 UTC 18 March 2019
Temperature: -2.0°C (28°F)
Dewpoint: -3.0°C (27°F) [RH = 93%]
Pressure (altimeter): 29.29 inches Hg (992.0 mb)
Winds: from the NNW (340 degrees) at 21 MPH (18 knots; 9.3 m/s)
gusting to 24 MPH (21 knots; 10.8 m/s)
Visibility: 0.75 miles (1.21 km)
Ceiling: 600 feet AGL
Clouds: overcast cloud deck at 600 feet AGL
Weather: BR  (mist)

METAR text: PAPN 180256Z AUTO 34015KT 1 1/2SM BR BKN006 BKN011 OVC017 M02/M03 A2928 RMK AO2 CIG 004V009 SLP916 T10221028 53006 PWINO FZRANO
Conditions at: PAPN (PILOT POINT , AK, US) observed 0256 UTC 18 March 2019
Temperature: -2.2°C (28°F)
Dewpoint: -2.8°C (27°F) [RH = 96%]
Pressure (altimeter): 29.28 inches Hg (991.6 mb)
[Sea-level pressure:  991.6 mb]
Winds: from the NNW (340 degrees) at 17 MPH (15 knots; 7.7 m/s)
Visibility: 1.50 miles (2.41 km)
Ceiling: 600 feet AGL
Clouds: broken clouds at 600 feet AGL
broken clouds at 1100 feet AGL
overcast cloud deck at 1700 feet AGL
Weather: BR  (mist)

METAR text: PAPN 180240Z AUTO 33015KT 1 1/4SM BR SCT006 BKN009 OVC025 M02/M03 A2927 RMK AO2 CIG 008V012 PWINO FZRANO
Conditions at: PAPN (PILOT POINT , AK, US) observed 0240 UTC 18 March 2019
Temperature: -2.0°C (28°F)
Dewpoint: -3.0°C (27°F) [RH = 93%]
Pressure (altimeter): 29.27 inches Hg (991.3 mb)
Winds: from the NNW (330 degrees) at 17 MPH (15 knots; 7.7 m/s)
Visibility: 1.25 miles (2.01 km)
Ceiling: 900 feet AGL
Clouds: scattered clouds at 600 feet AGL
broken clouds at 900 feet AGL
overcast cloud deck at 2500 feet AGL
Weather: BR  (mist)

METAR text: PAPN 180207Z AUTO 33016KT 3/4SM BR FEW004 BKN009 OVC016 M02/M03 A2927 RMK AO2 CIG 006V013 PWINO FZRANO
Conditions at: PAPN (PILOT POINT , AK, US) observed 0207 UTC 18 March 2019
Temperature: -2.0°C (28°F)
Dewpoint: -3.0°C (27°F) [RH = 93%]
Pressure (altimeter): 29.27 inches Hg (991.3 mb)
Winds: from the NNW (330 degrees) at 18 MPH (16 knots; 8.2 m/s)
Visibility: 0.75 miles (1.21 km)
Ceiling: 900 feet AGL
Clouds: few clouds at 400 feet AGL
broken clouds at 900 feet AGL
overcast cloud deck at 1600 feet AGL
Weather: BR  (mist)

METAR text: PAPN 180205Z AUTO 33015KT 3/4SM BR SCT008 OVC016 M02/M03 A2927 RMK AO2 PWINO FZRANO
Conditions at: PAPN (PILOT POINT , AK, US) observed 0205 UTC 18 March 2019
Temperature: -2.0°C (28°F)
Dewpoint: -3.0°C (27°F) [RH = 93%]
Pressure (altimeter): 29.27 inches Hg (991.3 mb)
Winds: from the NNW (330 degrees) at 17 MPH (15 knots; 7.7 m/s)
Visibility: 0.75 miles (1.21 km)
Ceiling: 1600 feet AGL
Clouds: scattered clouds at 800 feet AGL
overcast cloud deck at 1600 feet AGL
Weather: BR  (mist)

METAR text: PAPN 180202Z AUTO 34017KT 1SM BR FEW004 BKN008 OVC016 M02/M03 A2927 RMK AO2 CIG 006V011 PWINO FZRANO
Conditions at: PAPN (PILOT POINT , AK, US) observed 0202 UTC 18 March 2019
Temperature: -2.0°C (28°F)
Dewpoint: -3.0°C (27°F) [RH = 93%]
Pressure (altimeter): 29.27 inches Hg (991.3 mb)
Winds: from the NNW (340 degrees) at 20 MPH (17 knots; 8.7 m/s)
Visibility: 1.00 miles (1.61 km)
Ceiling: 800 feet AGL
Clouds: few clouds at 400 feet AGL
broken clouds at 800 feet AGL
overcast cloud deck at 1600 feet AGL
Weather: BR  (mist)

METAR text: PAPN 180156Z AUTO 34019G24KT 1/2SM FZFG FEW004 BKN009 OVC016 M02/M03 A2927 RMK AO2 CIG 006V011 SLP912 T10221028 PWINO FZRANO
Conditions at: PAPN (PILOT POINT , AK, US) observed 0156 UTC 18 March 2019
Temperature: -2.2°C (28°F)
Dewpoint: -2.8°C (27°F) [RH = 96%]
Pressure (altimeter): 29.27 inches Hg (991.3 mb)
[Sea-level pressure:  991.2 mb]
Winds: from the NNW (340 degrees) at 22 MPH (19 knots; 9.8 m/s)
gusting to 28 MPH (24 knots; 12.3 m/s)
Visibility: 0.50 miles (0.80 km)
Ceiling: 900 feet AGL
Clouds: few clouds at 400 feet AGL
broken clouds at 900 feet AGL
overcast cloud deck at 1600 feet AGL
Weather: FZFG  (freezing fog)

METAR text: PAPN 180137Z AUTO 33017G24KT 1SM BR BKN008 OVC016 M02/M03 A2927 RMK AO2 CIG 004V013 PWINO FZRANO
Conditions at: PAPN (PILOT POINT , AK, US) observed 0137 UTC 18 March 2019
Temperature: -2.0°C (28°F)
Dewpoint: -3.0°C (27°F) [RH = 93%]
Pressure (altimeter): 29.27 inches Hg (991.3 mb)
Winds: from the NNW (330 degrees) at 20 MPH (17 knots; 8.7 m/s)
gusting to 28 MPH (24 knots; 12.3 m/s)
Visibility: 1.00 miles (1.61 km)
Ceiling: 800 feet AGL
Clouds: broken clouds at 800 feet AGL
overcast cloud deck at 1600 feet AGL
Weather: BR  (mist)

METAR text: PAPN 180126Z AUTO 34017G24KT 1 1/4SM BR BKN008 BKN012 OVC016 M02/M03 A2927 RMK AO2 CIG 005V010 PWINO FZRANO
Conditions at: PAPN (PILOT POINT , AK, US) observed 0126 UTC 18 March 2019
Temperature: -2.0°C (28°F)
Dewpoint: -3.0°C (27°F) [RH = 93%]
Pressure (altimeter): 29.27 inches Hg (991.3 mb)
Winds: from the NNW (340 degrees) at 20 MPH (17 knots; 8.7 m/s)
gusting to 28 MPH (24 knots; 12.3 m/s)
Visibility: 1.25 miles (2.01 km)
Ceiling: 800 feet AGL
Clouds: broken clouds at 800 feet AGL
broken clouds at 1200 feet AGL
overcast cloud deck at 1600 feet AGL
Weather: BR  (mist)

METAR text: PAPN 180056Z AUTO 33020G26KT 1SM BR BKN006 BKN011 OVC017 M02/M03 A2926 RMK AO2 PK WND 33026/0054 CIG 005V009 SLP910 T10171028 PWINO FZRANO
Conditions at: PAPN (PILOT POINT , AK, US) observed 0056 UTC 18 March 2019
Temperature: -1.7°C (29°F)
Dewpoint: -2.8°C (27°F) [RH = 92%]
Pressure (altimeter): 29.26 inches Hg (990.9 mb)
[Sea-level pressure:  991.0 mb]
Winds: from the NNW (330 degrees) at 23 MPH (20 knots; 10.3 m/s)
gusting to 30 MPH (26 knots; 13.4 m/s)
Visibility: 1.00 miles (1.61 km)
Ceiling: 600 feet AGL
Clouds: broken clouds at 600 feet AGL
broken clouds at 1100 feet AGL
overcast cloud deck at 1700 feet AGL
Weather: BR  (mist)

METAR text: PAPN 180041Z AUTO 33019KT 1SM BR BKN006 OVC013 M02/M02 A2926 RMK AO2 CIG 005V012 PWINO FZRANO
Conditions at: PAPN (PILOT POINT , AK, US) observed 0041 UTC 18 March 2019
Temperature: -2.0°C (28°F)
Dewpoint: -2.0°C (28°F) [RH = 100%]
Pressure (altimeter): 29.26 inches Hg (990.9 mb)
Winds: from the NNW (330 degrees) at 22 MPH (19 knots; 9.8 m/s)
Visibility: 1.00 miles (1.61 km)
Ceiling: 600 feet AGL
Clouds: broken clouds at 600 feet AGL
overcast cloud deck at 1300 feet AGL
Weather: BR  (mist)

METAR text: PAPN 180017Z AUTO 34018G24KT 3/4SM BR BKN006 OVC015 M02/M02 A2926 RMK AO2 CIG 005V009 PWINO FZRANO
Conditions at: PAPN (PILOT POINT , AK, US) observed 0017 UTC 18 March 2019
Temperature: -2.0°C (28°F)
Dewpoint: -2.0°C (28°F) [RH = 100%]
Pressure (altimeter): 29.26 inches Hg (990.9 mb)
Winds: from the NNW (340 degrees) at 21 MPH (18 knots; 9.3 m/s)
gusting to 28 MPH (24 knots; 12.3 m/s)
Visibility: 0.75 miles (1.21 km)
Ceiling: 600 feet AGL
Clouds: broken clouds at 600 feet AGL
overcast cloud deck at 1500 feet AGL
Weather: BR  (mist)

METAR text: PAPN 172356Z AUTO 33017KT 1SM BR BKN006 OVC013 M02/M02 A2926 RMK AO2 PK WND 34026/2334 CIG 004V009 SLP911 T10171022 11011 21017 56008 PWINO FZRANO
Conditions at: PAPN (PILOT POINT , AK, US) observed 2356 UTC 17 March 2019
Temperature: -1.7°C (29°F)
Dewpoint: -2.2°C (28°F) [RH = 96%]
Pressure (altimeter): 29.26 inches Hg (990.9 mb)
[Sea-level pressure:  991.1 mb]
Winds: from the NNW (330 degrees) at 20 MPH (17 knots; 8.7 m/s)
Visibility: 1.00 miles (1.61 km)
Ceiling: 600 feet AGL
Clouds: broken clouds at 600 feet AGL
overcast cloud deck at 1300 feet AGL
Weather: BR  (mist)

METAR text: PAPN 172336Z AUTO 34020G26KT 3/4SM BR BKN006 OVC013 M02/M03 A2926 RMK AO2 PK WND 34026/2334 CIG 004V009 PWINO FZRANO
Conditions at: PAPN (PILOT POINT , AK, US) observed 2336 UTC 17 March 2019
Temperature: -2.0°C (28°F)
Dewpoint: -3.0°C (27°F) [RH = 93%]
Pressure (altimeter): 29.26 inches Hg (990.9 mb)
Winds: from the NNW (340 degrees) at 23 MPH (20 knots; 10.3 m/s)
gusting to 30 MPH (26 knots; 13.4 m/s)
Visibility: 0.75 miles (1.21 km)
Ceiling: 600 feet AGL
Clouds: broken clouds at 600 feet AGL
overcast cloud deck at 1300 feet AGL
Weather: BR  (mist)

METAR text: PAPN 172256Z AUTO 34017G22KT 1SM BR OVC008 M02/M02 A2927 RMK AO2 PK WND 34026/2221 CIG 004V012 SLP913 T10171022 PWINO FZRANO
Conditions at: PAPN (PILOT POINT , AK, US) observed 2256 UTC 17 March 2019
Temperature: -1.7°C (29°F)
Dewpoint: -2.2°C (28°F) [RH = 96%]
Pressure (altimeter): 29.27 inches Hg (991.3 mb)
[Sea-level pressure:  991.3 mb]
Winds: from the NNW (340 degrees) at 20 MPH (17 knots; 8.7 m/s)
gusting to 25 MPH (22 knots; 11.3 m/s)
Visibility: 1.00 miles (1.61 km)
Ceiling: 800 feet AGL
Clouds: overcast cloud deck at 800 feet AGL
Weather: BR  (mist)

METAR text: PAPN 172219Z AUTO 35016KT 3/4SM BR BKN006 OVC014 M02/M03 A2927 RMK AO2 CIG 005V010 PWINO FZRANO
Conditions at: PAPN (PILOT POINT , AK, US) observed 2219 UTC 17 March 2019
Temperature: -2.0°C (28°F)
Dewpoint: -3.0°C (27°F) [RH = 93%]
Pressure (altimeter): 29.27 inches Hg (991.3 mb)
Winds: from the N (350 degrees) at 18 MPH (16 knots; 8.2 m/s)
Visibility: 0.75 miles (1.21 km)
Ceiling: 600 feet AGL
Clouds: broken clouds at 600 feet AGL
overcast cloud deck at 1400 feet AGL
Weather: BR  (mist)

METAR text: PAPN 172208Z AUTO 35017KT 1SM BR BKN006 BKN012 OVC017 M02/M03 A2927 RMK AO2 CIG 004V009 PWINO FZRANO
Conditions at: PAPN (PILOT POINT , AK, US) observed 2208 UTC 17 March 2019
Temperature: -2.0°C (28°F)
Dewpoint: -3.0°C (27°F) [RH = 93%]
Pressure (altimeter): 29.27 inches Hg (991.3 mb)
Winds: from the N (350 degrees) at 20 MPH (17 knots; 8.7 m/s)
Visibility: 1.00 miles (1.61 km)
Ceiling: 600 feet AGL
Clouds: broken clouds at 600 feet AGL
broken clouds at 1200 feet AGL
overcast cloud deck at 1700 feet AGL
Weather: BR  (mist)

METAR text: PAPN 172156Z AUTO 35016G22KT 3/4SM BR BKN006 OVC016 M02/M03 A2928 RMK AO2 CIG 004V008 SLP915 T10171028 PWINO FZRANO
Conditions at: PAPN (PILOT POINT , AK, US) observed 2156 UTC 17 March 2019
Temperature: -1.7°C (29°F)
Dewpoint: -2.8°C (27°F) [RH = 92%]
Pressure (altimeter): 29.28 inches Hg (991.6 mb)
[Sea-level pressure:  991.5 mb]
Winds: from the N (350 degrees) at 18 MPH (16 knots; 8.2 m/s)
gusting to 25 MPH (22 knots; 11.3 m/s)
Visibility: 0.75 miles (1.21 km)
Ceiling: 600 feet AGL
Clouds: broken clouds at 600 feet AGL
overcast cloud deck at 1600 feet AGL
Weather: BR  (mist)

METAR text: PAPN 172104Z AUTO 36015KT 3/4SM BR BKN006 OVC014 M02/M03 A2929 RMK AO2 CIG 005V010 PWINO FZRANO
Conditions at: PAPN (PILOT POINT , AK, US) observed 2104 UTC 17 March 2019
Temperature: -2.0°C (28°F)
Dewpoint: -3.0°C (27°F) [RH = 93%]
Pressure (altimeter): 29.29 inches Hg (992.0 mb)
Winds: from the N (360 degrees) at 17 MPH (15 knots; 7.7 m/s)
Visibility: 0.75 miles (1.21 km)
Ceiling: 600 feet AGL
Clouds: broken clouds at 600 feet AGL
overcast cloud deck at 1400 feet AGL
Weather: BR  (mist)

METAR text: PAPN 172056Z AUTO 35013KT 1SM BR BKN006 OVC014 M02/M03 A2929 RMK AO2 CIG 005V010 SLP919 T10171028 56021 PWINO FZRANO
Conditions at: PAPN (PILOT POINT , AK, US) observed 2056 UTC 17 March 2019
Temperature: -1.7°C (29°F)
Dewpoint: -2.8°C (27°F) [RH = 92%]
Pressure (altimeter): 29.29 inches Hg (992.0 mb)
[Sea-level pressure:  991.9 mb]
Winds: from the N (350 degrees) at 15 MPH (13 knots; 6.7 m/s)
Visibility: 1.00 miles (1.61 km)
Ceiling: 600 feet AGL
Clouds: broken clouds at 600 feet AGL
overcast cloud deck at 1400 feet AGL
Weather: BR  (mist)

METAR text: PAPN 172043Z AUTO 36016KT 1 3/4SM BR BKN006 OVC014 M02/M02 A2929 RMK AO2 CIG 004V011 PWINO FZRANO
Conditions at: PAPN (PILOT POINT , AK, US) observed 2043 UTC 17 March 2019
Temperature: -2.0°C (28°F)
Dewpoint: -2.0°C (28°F) [RH = 100%]
Pressure (altimeter): 29.29 inches Hg (992.0 mb)
Winds: from the N (360 degrees) at 18 MPH (16 knots; 8.2 m/s)
Visibility: 1.75 miles (2.82 km)
Ceiling: 600 feet AGL
Clouds: broken clouds at 600 feet AGL
overcast cloud deck at 1400 feet AGL
Weather: BR  (mist)

METAR text: PAPN 172035Z AUTO 35014KT 3SM BR BKN006 OVC014 M02/M02 A2929 RMK AO2 CIG 004V011 PWINO FZRANO
Conditions at: PAPN (PILOT POINT , AK, US) observed 2035 UTC 17 March 2019
Temperature: -2.0°C (28°F)
Dewpoint: -2.0°C (28°F) [RH = 100%]
Pressure (altimeter): 29.29 inches Hg (992.0 mb)
Winds: from the N (350 degrees) at 16 MPH (14 knots; 7.2 m/s)
Visibility: 3 miles ( 5 km)
Ceiling: 600 feet AGL
Clouds: broken clouds at 600 feet AGL
overcast cloud deck at 1400 feet AGL
Weather: BR  (mist)

METAR text: PAPN 172010Z AUTO 35015KT 1 1/4SM BR OVC006 M01/M02 A2930 RMK AO2 VIS 1V2 1/2 CIG 004V010 PWINO FZRANO
Conditions at: PAPN (PILOT POINT , AK, US) observed 2010 UTC 17 March 2019
Temperature: -1.0°C (30°F)
Dewpoint: -2.0°C (28°F) [RH = 93%]
Pressure (altimeter): 29.30 inches Hg (992.3 mb)
Winds: from the N (350 degrees) at 17 MPH (15 knots; 7.7 m/s)
Visibility: 1.25 miles (2.01 km)
Ceiling: 600 feet AGL
Clouds: overcast cloud deck at 600 feet AGL
Weather: BR  (mist)

METAR text: PAPN 171956Z AUTO 34016KT 2 1/2SM BR BKN008 OVC015 M01/M02 A2930 RMK AO2 VIS 1 3/4V3 CIG 005V010 SLP924 T10111022 PWINO FZRANO
Conditions at: PAPN (PILOT POINT , AK, US) observed 1956 UTC 17 March 2019
Temperature: -1.1°C (30°F)
Dewpoint: -2.2°C (28°F) [RH = 92%]
Pressure (altimeter): 29.30 inches Hg (992.3 mb)
[Sea-level pressure:  992.4 mb]
Winds: from the NNW (340 degrees) at 18 MPH (16 knots; 8.2 m/s)
Visibility: 2.50 miles (4.02 km)
Ceiling: 800 feet AGL
Clouds: broken clouds at 800 feet AGL
overcast cloud deck at 1500 feet AGL
Weather: BR  (mist)

METAR text: PAPN 171948Z AUTO 34012KT 3SM BR BKN008 OVC015 M01/M02 A2931 RMK AO2 CIG 006V011 PWINO FZRANO
Conditions at: PAPN (PILOT POINT , AK, US) observed 1948 UTC 17 March 2019
Temperature: -1.0°C (30°F)
Dewpoint: -2.0°C (28°F) [RH = 93%]
Pressure (altimeter): 29.31 inches Hg (992.6 mb)
Winds: from the NNW (340 degrees) at 14 MPH (12 knots; 6.2 m/s)
Visibility: 3 miles ( 5 km)
Ceiling: 800 feet AGL
Clouds: broken clouds at 800 feet AGL
overcast cloud deck at 1500 feet AGL
Weather: BR  (mist)

METAR text: PAPN 171934Z AUTO 35012KT 9SM BKN010 OVC015 M01/M02 A2931 RMK AO2 CIG 007V013 PWINO FZRANO
Conditions at: PAPN (PILOT POINT , AK, US) observed 1934 UTC 17 March 2019
Temperature: -1.0°C (30°F)
Dewpoint: -2.0°C (28°F) [RH = 93%]
Pressure (altimeter): 29.31 inches Hg (992.6 mb)
Winds: from the N (350 degrees) at 14 MPH (12 knots; 6.2 m/s)
Visibility: 9 miles (14 km)
Ceiling: 1000 feet AGL
Clouds: broken clouds at 1000 feet AGL
overcast cloud deck at 1500 feet AGL
Weather: automated observation with no human augmentation;
there may or may not be significant weather present at this time

METAR text: PAPN 171903Z AUTO 35009KT 3SM BR OVC007 M01/M02 A2932 RMK AO2 CIG 004V010 PWINO FZRANO
Conditions at: PAPN (PILOT POINT , AK, US) observed 1903 UTC 17 March 2019
Temperature: -1.0°C (30°F)
Dewpoint: -2.0°C (28°F) [RH = 93%]
Pressure (altimeter): 29.32 inches Hg (993.0 mb)
Winds: from the N (350 degrees) at 10 MPH (9 knots; 4.6 m/s)
Visibility: 3 miles ( 5 km)
Ceiling: 700 feet AGL
Clouds: overcast cloud deck at 700 feet AGL
Weather: BR  (mist)

METAR text: PAPN 171856Z AUTO 35012KT 1 1/2SM BR BKN007 OVC013 M01/M02 A2932 RMK AO2 VIS 1V3 CIG 004V010 SLP931 T10111022 PWINO FZRANO
Conditions at: PAPN (PILOT POINT , AK, US) observed 1856 UTC 17 March 2019
Temperature: -1.1°C (30°F)
Dewpoint: -2.2°C (28°F) [RH = 92%]
Pressure (altimeter): 29.32 inches Hg (993.0 mb)
[Sea-level pressure:  993.1 mb]
Winds: from the N (350 degrees) at 14 MPH (12 knots; 6.2 m/s)
Visibility: 1.50 miles (2.41 km)
Ceiling: 700 feet AGL
Clouds: broken clouds at 700 feet AGL
overcast cloud deck at 1300 feet AGL
Weather: BR  (mist)

METAR text: PAPN 171847Z AUTO 32010KT 1 3/4SM BR BKN007 OVC013 M01/M02 A2932 RMK AO2 VIS 3/4V5 CIG 004V010 PWINO FZRANO
Conditions at: PAPN (PILOT POINT , AK, US) observed 1847 UTC 17 March 2019
Temperature: -1.0°C (30°F)
Dewpoint: -2.0°C (28°F) [RH = 93%]
Pressure (altimeter): 29.32 inches Hg (993.0 mb)
Winds: from the NW (320 degrees) at 12 MPH (10 knots; 5.1 m/s)
Visibility: 1.75 miles (2.82 km)
Ceiling: 700 feet AGL
Clouds: broken clouds at 700 feet AGL
overcast cloud deck at 1300 feet AGL
Weather: BR  (mist)

METAR text: PAPN 171844Z AUTO 32011KT 3SM BR BKN007 OVC015 M01/M03 A2932 RMK AO2 CIG 004V010 PWINO FZRANO
Conditions at: PAPN (PILOT POINT , AK, US) observed 1844 UTC 17 March 2019
Temperature: -1.0°C (30°F)
Dewpoint: -3.0°C (27°F) [RH = 86%]
Pressure (altimeter): 29.32 inches Hg (993.0 mb)
Winds: from the NW (320 degrees) at 13 MPH (11 knots; 5.7 m/s)
Visibility: 3 miles ( 5 km)
Ceiling: 700 feet AGL
Clouds: broken clouds at 700 feet AGL
overcast cloud deck at 1500 feet AGL
Weather: BR  (mist)

METAR text: PAPN 171837Z AUTO 31009KT 1 1/2SM BR BKN007 OVC015 M02/M03 A2933 RMK AO2 VIS 3/4V3 CIG 004V010 PWINO FZRANO
Conditions at: PAPN (PILOT POINT , AK, US) observed 1837 UTC 17 March 2019
Temperature: -2.0°C (28°F)
Dewpoint: -3.0°C (27°F) [RH = 93%]
Pressure (altimeter): 29.33 inches Hg (993.3 mb)
Winds: from the NW (310 degrees) at 10 MPH (9 knots; 4.6 m/s)
Visibility: 1.50 miles (2.41 km)
Ceiling: 700 feet AGL
Clouds: broken clouds at 700 feet AGL
overcast cloud deck at 1500 feet AGL
Weather: BR  (mist)

METAR text: PAPN 171828Z AUTO 32009KT 2 1/2SM BR FEW007 OVC017 M01/M03 A2933 RMK AO2 VIS 1 1/4V5 PWINO FZRANO
Conditions at: PAPN (PILOT POINT , AK, US) observed 1828 UTC 17 March 2019
Temperature: -1.0°C (30°F)
Dewpoint: -3.0°C (27°F) [RH = 86%]
Pressure (altimeter): 29.33 inches Hg (993.3 mb)
Winds: from the NW (320 degrees) at 10 MPH (9 knots; 4.6 m/s)
Visibility: 2.50 miles (4.02 km)
Ceiling: 1700 feet AGL
Clouds: few clouds at 700 feet AGL
overcast cloud deck at 1700 feet AGL
Weather: BR  (mist)

METAR text: PAPN 171756Z AUTO 33009KT 10SM BKN019 OVC060 M02/M05 A2935 RMK AO2 SLP940 T10171050 11017 21028 56026 PWINO FZRANO
Conditions at: PAPN (PILOT POINT , AK, US) observed 1756 UTC 17 March 2019
Temperature: -1.7°C (29°F)
Dewpoint: -5.0°C (23°F) [RH = 78%]
Pressure (altimeter): 29.35 inches Hg (994.0 mb)
[Sea-level pressure:  994.0 mb]
Winds: from the NNW (330 degrees) at 10 MPH (9 knots; 4.6 m/s)
Visibility: 10 or more miles (16+ km)
Ceiling: 1900 feet AGL
Clouds: broken clouds at 1900 feet AGL
overcast cloud deck at 6000 feet AGL
Weather: automated observation with no human augmentation;
there may or may not be significant weather present at this time